sensor_id;sensor_type;location;lat;lon;timestamp;P1;durP1;ratioP1;P2;durP2;ratioP2
16967;SDS011;64862;54.398;10.126;2023-01-24T00:01:45;15.88;;;8.43;;
16967;SDS011;64862;54.398;10.126;2023-01-24T00:11:47;14.15;;;8.15;;
16967;SDS011;64862;54.398;10.126;2023-01-24T00:21:50;17.50;;;7.90;;
16967;SDS011;64862;54.398;10.126;2023-01-24T00:31:52;13.82;;;6.75;;
16967;SDS011;64862;54.398;10.126;2023-01-24T00:41:56;14.65;;;7.60;;
16967;SDS011;64862;54.398;10.126;2023-01-24T00:51:58;15.50;;;7.65;;
16967;SDS011;64862;54.398;10.126;2023-01-24T01:02:01;15.75;;;7.78;;
16967;SDS011;64862;54.398;10.126;2023-01-24T01:12:03;15.48;;;7.55;;
16967;SDS011;64862;54.398;10.126;2023-01-24T01:22:06;19.05;;;8.80;;
16967;SDS011;64862;54.398;10.126;2023-01-24T01:32:08;16.27;;;7.10;;
16967;SDS011;64862;54.398;10.126;2023-01-24T01:42:12;12.20;;;6.45;;
16967;SDS011;64862;54.398;10.126;2023-01-24T01:52:15;14.10;;;6.18;;
16967;SDS011;64862;54.398;10.126;2023-01-24T02:02:19;12.23;;;5.95;;
16967;SDS011;64862;54.398;10.126;2023-01-24T02:12:23;10.98;;;6.20;;
16967;SDS011;64862;54.398;10.126;2023-01-24T02:22:31;12.20;;;6.30;;
16967;SDS011;64862;54.398;10.126;2023-01-24T02:32:40;11.15;;;5.88;;
16967;SDS011;64862;54.398;10.126;2023-01-24T02:42:42;13.60;;;6.53;;
16967;SDS011;64862;54.398;10.126;2023-01-24T02:52:45;12.35;;;6.97;;
16967;SDS011;64862;54.398;10.126;2023-01-24T03:03:05;14.43;;;7.43;;
16967;SDS011;64862;54.398;10.126;2023-01-24T03:13:09;12.32;;;7.05;;
16967;SDS011;64862;54.398;10.126;2023-01-24T03:23:28;15.15;;;7.90;;
16967;SDS011;64862;54.398;10.126;2023-01-24T03:33:49;16.50;;;7.80;;
16967;SDS011;64862;54.398;10.126;2023-01-24T03:44:09;12.20;;;7.13;;
16967;SDS011;64862;54.398;10.126;2023-01-24T03:54:13;12.15;;;6.65;;
16967;SDS011;64862;54.398;10.126;2023-01-24T04:04:32;14.90;;;6.95;;
16967;SDS011;64862;54.398;10.126;2023-01-24T04:14:50;15.57;;;6.88;;
16967;SDS011;64862;54.398;10.126;2023-01-24T04:24:52;12.30;;;6.70;;
16967;SDS011;64862;54.398;10.126;2023-01-24T04:34:58;12.20;;;7.35;;
16967;SDS011;64862;54.398;10.126;2023-01-24T04:45:18;13.73;;;6.88;;
16967;SDS011;64862;54.398;10.126;2023-01-24T04:55:21;15.63;;;7.13;;
16967;SDS011;64862;54.398;10.126;2023-01-24T05:05:25;14.18;;;7.63;;
16967;SDS011;64862;54.398;10.126;2023-01-24T05:15:29;15.30;;;7.32;;
16967;SDS011;64862;54.398;10.126;2023-01-24T05:25:33;14.13;;;8.05;;
16967;SDS011;64862;54.398;10.126;2023-01-24T05:35:37;16.35;;;7.55;;
16967;SDS011;64862;54.398;10.126;2023-01-24T05:45:41;12.35;;;7.65;;
16967;SDS011;64862;54.398;10.126;2023-01-24T05:55:44;17.10;;;8.52;;
16967;SDS011;64862;54.398;10.126;2023-01-24T06:05:47;17.60;;;9.40;;
16967;SDS011;64862;54.398;10.126;2023-01-24T06:15:52;13.77;;;8.30;;
16967;SDS011;64862;54.398;10.126;2023-01-24T06:26:04;14.57;;;8.30;;
16967;SDS011;64862;54.398;10.126;2023-01-24T06:36:13;17.90;;;9.35;;
16967;SDS011;64862;54.398;10.126;2023-01-24T06:46:22;16.98;;;8.88;;
16967;SDS011;64862;54.398;10.126;2023-01-24T06:56:26;18.05;;;9.43;;
16967;SDS011;64862;54.398;10.126;2023-01-24T07:06:27;18.85;;;9.90;;
16967;SDS011;64862;54.398;10.126;2023-01-24T07:16:31;20.00;;;9.90;;
16967;SDS011;64862;54.398;10.126;2023-01-24T07:26:33;18.88;;;10.02;;
16967;SDS011;64862;54.398;10.126;2023-01-24T07:36:37;21.73;;;10.27;;
16967;SDS011;64862;54.398;10.126;2023-01-24T07:46:39;20.23;;;11.10;;
16967;SDS011;64862;54.398;10.126;2023-01-24T07:56:42;26.40;;;12.90;;
16967;SDS011;64862;54.398;10.126;2023-01-24T08:06:44;21.85;;;12.00;;
16967;SDS011;64862;54.398;10.126;2023-01-24T08:17:01;24.15;;;13.00;;
16967;SDS011;64862;54.398;10.126;2023-01-24T08:27:03;25.13;;;12.70;;
16967;SDS011;64862;54.398;10.126;2023-01-24T08:37:07;24.40;;;12.88;;
16967;SDS011;64862;54.398;10.126;2023-01-24T08:47:09;26.17;;;13.63;;
16967;SDS011;64862;54.398;10.126;2023-01-24T08:57:13;24.83;;;13.48;;
16967;SDS011;64862;54.398;10.126;2023-01-24T09:07:15;22.25;;;12.18;;
16967;SDS011;64862;54.398;10.126;2023-01-24T09:17:18;21.98;;;12.73;;
16967;SDS011;64862;54.398;10.126;2023-01-24T09:27:20;22.58;;;12.70;;
16967;SDS011;64862;54.398;10.126;2023-01-24T09:37:23;22.83;;;11.82;;
16967;SDS011;64862;54.398;10.126;2023-01-24T09:47:26;19.73;;;11.23;;
16967;SDS011;64862;54.398;10.126;2023-01-24T09:57:41;19.98;;;11.23;;
16967;SDS011;64862;54.398;10.126;2023-01-24T10:08:05;17.42;;;10.63;;
16967;SDS011;64862;54.398;10.126;2023-01-24T10:18:32;18.75;;;10.93;;
16967;SDS011;64862;54.398;10.126;2023-01-24T10:28:45;19.67;;;11.00;;
16967;SDS011;64862;54.398;10.126;2023-01-24T10:38:52;19.77;;;10.50;;
16967;SDS011;64862;54.398;10.126;2023-01-24T10:48:54;17.50;;;10.10;;
16967;SDS011;64862;54.398;10.126;2023-01-24T10:59:03;20.38;;;11.00;;
16967;SDS011;64862;54.398;10.126;2023-01-24T11:09:09;20.42;;;10.35;;
16967;SDS011;64862;54.398;10.126;2023-01-24T11:19:24;18.20;;;11.02;;
16967;SDS011;64862;54.398;10.126;2023-01-24T11:29:28;21.92;;;11.30;;
16967;SDS011;64862;54.398;10.126;2023-01-24T11:39:36;18.80;;;10.50;;
16967;SDS011;64862;54.398;10.126;2023-01-24T11:49:59;17.73;;;9.98;;
16967;SDS011;64862;54.398;10.126;2023-01-24T12:00:16;17.70;;;9.90;;
16967;SDS011;64862;54.398;10.126;2023-01-24T12:10:26;19.48;;;10.23;;
16967;SDS011;64862;54.398;10.126;2023-01-24T12:20:39;16.88;;;9.30;;
16967;SDS011;64862;54.398;10.126;2023-01-24T12:30:52;17.48;;;9.98;;
16967;SDS011;64862;54.398;10.126;2023-01-24T12:41:00;15.57;;;9.40;;
16967;SDS011;64862;54.398;10.126;2023-01-24T12:51:12;16.42;;;9.50;;
16967;SDS011;64862;54.398;10.126;2023-01-24T13:11:57;15.80;;;8.88;;
16967;SDS011;64862;54.398;10.126;2023-01-24T13:22:03;17.95;;;9.45;;
16967;SDS011;64862;54.398;10.126;2023-01-24T13:32:20;15.07;;;8.80;;
16967;SDS011;64862;54.398;10.126;2023-01-24T13:42:23;15.68;;;8.90;;
16967;SDS011;64862;54.398;10.126;2023-01-24T13:52:39;14.95;;;8.63;;
16967;SDS011;64862;54.398;10.126;2023-01-24T14:02:57;14.32;;;8.82;;
16967;SDS011;64862;54.398;10.126;2023-01-24T14:13:05;17.10;;;9.20;;
16967;SDS011;64862;54.398;10.126;2023-01-24T14:23:26;17.30;;;9.25;;
16967;SDS011;64862;54.398;10.126;2023-01-24T14:33:37;15.35;;;9.52;;
16967;SDS011;64862;54.398;10.126;2023-01-24T14:43:46;20.55;;;9.68;;
16967;SDS011;64862;54.398;10.126;2023-01-24T14:53:52;17.55;;;9.27;;
16967;SDS011;64862;54.398;10.126;2023-01-24T15:03:55;18.98;;;11.43;;
16967;SDS011;64862;54.398;10.126;2023-01-24T15:13:59;18.23;;;9.77;;
16967;SDS011;64862;54.398;10.126;2023-01-24T15:24:03;16.55;;;10.10;;
16967;SDS011;64862;54.398;10.126;2023-01-24T15:34:16;18.42;;;10.65;;
16967;SDS011;64862;54.398;10.126;2023-01-24T15:44:20;17.70;;;9.73;;
16967;SDS011;64862;54.398;10.126;2023-01-24T15:54:24;19.98;;;12.02;;
16967;SDS011;64862;54.398;10.126;2023-01-24T16:04:28;19.98;;;11.80;;
16967;SDS011;64862;54.398;10.126;2023-01-24T16:14:31;22.52;;;12.32;;
16967;SDS011;64862;54.398;10.126;2023-01-24T16:24:33;19.52;;;11.82;;
16967;SDS011;64862;54.398;10.126;2023-01-24T16:34:37;22.15;;;13.10;;
16967;SDS011;64862;54.398;10.126;2023-01-24T16:44:39;23.48;;;13.98;;
16967;SDS011;64862;54.398;10.126;2023-01-24T16:54:42;25.55;;;13.75;;
16967;SDS011;64862;54.398;10.126;2023-01-24T17:04:46;29.63;;;17.10;;
16967;SDS011;64862;54.398;10.126;2023-01-24T17:14:49;28.33;;;17.73;;
16967;SDS011;64862;54.398;10.126;2023-01-24T17:24:55;26.92;;;15.60;;
16967;SDS011;64862;54.398;10.126;2023-01-24T17:34:58;34.40;;;19.65;;
16967;SDS011;64862;54.398;10.126;2023-01-24T17:45:00;25.33;;;15.93;;
16967;SDS011;64862;54.398;10.126;2023-01-24T17:55:04;27.65;;;17.95;;
16967;SDS011;64862;54.398;10.126;2023-01-24T18:05:07;23.30;;;14.85;;
16967;SDS011;64862;54.398;10.126;2023-01-24T18:15:12;23.00;;;13.95;;
16967;SDS011;64862;54.398;10.126;2023-01-24T18:25:14;24.35;;;13.80;;
16967;SDS011;64862;54.398;10.126;2023-01-24T18:35:17;20.30;;;13.07;;
16967;SDS011;64862;54.398;10.126;2023-01-24T18:45:19;34.92;;;19.45;;
16967;SDS011;64862;54.398;10.126;2023-01-24T18:55:23;19.25;;;11.43;;
16967;SDS011;64862;54.398;10.126;2023-01-24T19:05:27;19.02;;;11.57;;
16967;SDS011;64862;54.398;10.126;2023-01-24T19:15:30;21.83;;;12.00;;
16967;SDS011;64862;54.398;10.126;2023-01-24T19:25:32;16.77;;;10.52;;
16967;SDS011;64862;54.398;10.126;2023-01-24T19:35:38;19.10;;;11.05;;
16967;SDS011;64862;54.398;10.126;2023-01-24T19:45:40;17.80;;;11.00;;
16967;SDS011;64862;54.398;10.126;2023-01-24T19:55:45;21.13;;;10.93;;
16967;SDS011;64862;54.398;10.126;2023-01-24T20:05:48;21.50;;;10.63;;
16967;SDS011;64862;54.398;10.126;2023-01-24T20:15:51;19.65;;;11.82;;
16967;SDS011;64862;54.398;10.126;2023-01-24T20:25:59;22.25;;;10.95;;
16967;SDS011;64862;54.398;10.126;2023-01-24T20:36:03;19.67;;;11.45;;
16967;SDS011;64862;54.398;10.126;2023-01-24T20:46:07;22.90;;;12.02;;
16967;SDS011;64862;54.398;10.126;2023-01-24T20:56:15;20.33;;;11.85;;
16967;SDS011;64862;54.398;10.126;2023-01-24T21:06:22;49.63;;;22.27;;
16967;SDS011;64862;54.398;10.126;2023-01-24T21:16:26;27.92;;;15.38;;
16967;SDS011;64862;54.398;10.126;2023-01-24T21:26:29;21.02;;;13.05;;
16967;SDS011;64862;54.398;10.126;2023-01-24T21:36:33;23.00;;;13.77;;
16967;SDS011;64862;54.398;10.126;2023-01-24T21:46:37;23.52;;;13.60;;
16967;SDS011;64862;54.398;10.126;2023-01-24T21:56:41;23.77;;;13.68;;
16967;SDS011;64862;54.398;10.126;2023-01-24T22:07:01;21.58;;;12.60;;
16967;SDS011;64862;54.398;10.126;2023-01-24T22:17:06;21.52;;;13.05;;
16967;SDS011;64862;54.398;10.126;2023-01-24T22:27:11;21.02;;;12.52;;
16967;SDS011;64862;54.398;10.126;2023-01-24T22:37:22;25.85;;;13.95;;
16967;SDS011;64862;54.398;10.126;2023-01-24T22:47:27;21.63;;;14.00;;
16967;SDS011;64862;54.398;10.126;2023-01-24T22:57:30;28.42;;;16.25;;
16967;SDS011;64862;54.398;10.126;2023-01-24T23:07:33;28.25;;;16.85;;
16967;SDS011;64862;54.398;10.126;2023-01-24T23:17:36;32.60;;;18.35;;
16967;SDS011;64862;54.398;10.126;2023-01-24T23:27:40;33.75;;;19.73;;
16967;SDS011;64862;54.398;10.126;2023-01-24T23:37:44;40.85;;;21.98;;
16967;SDS011;64862;54.398;10.126;2023-01-24T23:47:46;41.85;;;23.25;;
16967;SDS011;64862;54.398;10.126;2023-01-24T23:57:49;45.13;;;23.77;;
